createdAt,value
2019-06-08T00:02:29.402Z,95121.67
2019-06-08T00:05:02.553Z,95122.06
2019-06-08T00:07:35.562Z,95121.23
2019-06-08T00:10:09.378Z,95124.64
2019-06-08T00:12:42.288Z,95121.60
2019-06-08T00:15:16.146Z,95124.27
2019-06-08T00:17:49.081Z,95125.05
2019-06-08T00:20:22.287Z,95120.03
2019-06-08T00:22:55.054Z,95124.83
2019-06-08T00:25:28.190Z,95121.83
2019-06-08T00:28:01.324Z,95128.34
2019-06-08T00:30:35.250Z,95116.95
2019-06-08T00:33:08.158Z,95117.81
2019-06-08T00:35:41.025Z,95119.30
2019-06-08T00:38:14.841Z,95118.16
2019-06-08T00:40:48.082Z,95116.84
2019-06-08T00:43:21.418Z,95123.12
2019-06-08T00:45:54.458Z,95125.66
2019-06-08T00:48:28.726Z,95133.84
2019-06-08T00:51:01.730Z,95126.23
2019-06-08T00:53:34.603Z,95127.14
2019-06-08T00:56:07.701Z,95126.77
2019-06-08T00:58:40.574Z,95124.55
2019-06-08T01:01:14.280Z,95125.92
2019-06-08T01:03:47.315Z,95127.77
2019-06-08T01:06:20.929Z,95124.63
2019-06-08T01:08:55.279Z,95116.26
2019-06-08T01:11:28.859Z,95111.78
2019-06-08T01:14:03.192Z,95112.06
2019-06-08T01:16:37.389Z,95110.67
2019-06-08T01:19:10.605Z,95105.59
2019-06-08T01:21:43.519Z,95108.64
2019-06-08T01:24:16.415Z,95105.25
2019-06-08T01:26:49.635Z,95111.51
2019-06-08T01:29:24.025Z,95106.82
2019-06-08T01:31:56.852Z,95107.76
2019-06-08T01:34:30.952Z,95108.89
2019-06-08T01:37:03.967Z,95109.08
2019-06-08T01:39:36.855Z,95109.84
2019-06-08T01:42:09.833Z,95111.30
2019-06-08T01:44:42.720Z,95111.95
2019-06-08T01:47:15.616Z,95117.68
2019-06-08T01:49:48.571Z,95113.63
2019-06-08T01:52:22.505Z,95119.69
2019-06-08T01:54:55.759Z,95121.50
2019-06-08T01:57:29.355Z,95115.27
2019-06-08T02:00:28.681Z,95115.73
2019-06-08T02:02:37.211Z,95114.42
2019-06-08T02:05:10.558Z,95117.02
2019-06-08T02:07:43.453Z,95121.46
2019-06-08T02:10:16.929Z,95118.15
2019-06-08T02:12:49.817Z,95114.89
2019-06-08T02:15:25.210Z,95115.30
2019-06-08T02:17:58.482Z,95114.45
2019-06-08T02:20:32.907Z,95115.50
2019-06-08T02:23:06.011Z,95115.00
2019-06-08T02:25:39.592Z,95120.30
2019-06-08T02:28:13.820Z,95114.80
2019-06-08T02:30:46.963Z,95124.28
2019-06-08T02:33:20.120Z,95128.94
2019-06-08T02:35:53.281Z,95127.72
2019-06-08T02:38:27.560Z,95133.08
2019-06-08T02:41:01.231Z,95126.23
2019-06-08T02:43:35.671Z,95129.38
2019-06-08T02:46:08.689Z,95126.19
2019-06-08T02:49:02.235Z,95120.42
2019-06-08T02:51:18.581Z,95122.72
2019-06-08T02:53:52.090Z,95127.23
2019-06-08T02:56:26.012Z,95130.77
2019-06-08T02:59:01.794Z,95134.54
2019-06-08T03:01:38.886Z,95130.44
2019-06-08T03:04:12.503Z,95130.09
2019-06-08T03:06:49.272Z,95135.34
2019-06-08T03:09:25.080Z,95138.28
2019-06-08T03:11:59.389Z,95139.39
2019-06-08T03:14:35.474Z,95135.67
2019-06-08T03:17:08.462Z,95132.84
2019-06-08T03:19:41.923Z,95136.77
2019-06-08T03:22:14.918Z,95140.69
2019-06-08T03:24:48.020Z,95144.09
2019-06-08T03:27:21.159Z,95142.30
2019-06-08T03:29:53.986Z,95142.03
2019-06-08T03:32:26.865Z,95142.16
2019-06-08T03:35:00.681Z,95142.74
2019-06-08T03:37:35.637Z,95151.08
2019-06-08T03:40:09.106Z,95152.91
2019-06-08T03:42:41.719Z,95157.03
2019-06-08T03:45:14.964Z,95159.81
2019-06-08T03:47:47.837Z,95155.83
2019-06-08T03:50:20.662Z,95155.13
2019-06-08T03:52:53.469Z,95156.27
2019-06-08T03:55:27.484Z,95156.44
2019-06-08T03:58:00.343Z,95155.38
2019-06-08T04:00:33.169Z,95152.55
2019-06-08T04:03:06.205Z,95153.36
2019-06-08T04:05:40.815Z,95146.80
2019-06-08T04:08:13.735Z,95153.84
2019-06-08T04:10:47.033Z,95148.40
2019-06-08T04:13:21.257Z,95154.14
2019-06-08T04:15:54.085Z,95162.43
2019-06-08T04:18:27.600Z,95164.85
2019-06-08T04:21:00.808Z,95153.47
2019-06-08T04:23:34.781Z,95151.55
2019-06-08T04:26:09.012Z,95146.78
2019-06-08T04:28:42.500Z,95147.24
2019-06-08T04:31:15.627Z,95147.98
2019-06-08T04:33:50.724Z,95152.06
2019-06-08T04:36:23.531Z,95153.61
2019-06-08T04:38:56.430Z,95155.48
2019-06-08T04:41:29.462Z,95157.48
2019-06-08T04:44:02.944Z,95156.14
2019-06-08T04:46:36.077Z,95157.21
2019-06-08T04:49:09.149Z,95156.48
2019-06-08T04:51:42.493Z,95157.95
2019-06-08T04:54:15.593Z,95160.22
2019-06-08T04:56:49.558Z,95156.78
2019-06-08T04:59:22.645Z,95156.25
2019-06-08T05:01:57.149Z,95163.98
2019-06-08T05:04:30.450Z,95161.49
2019-06-08T05:07:03.451Z,95157.85
2019-06-08T05:09:36.309Z,95163.55
2019-06-08T05:12:09.289Z,95161.73
2019-06-08T05:14:43.074Z,95163.05
2019-06-08T05:17:16.092Z,95164.86
2019-06-08T05:19:50.505Z,95162.91
2019-06-08T05:22:23.797Z,95160.86
2019-06-08T05:24:57.281Z,95164.15
2019-06-08T05:27:30.273Z,95164.93
2019-06-08T05:30:08.487Z,95174.79
2019-06-08T05:32:39.399Z,95174.64
2019-06-08T05:35:13.222Z,95171.94
2019-06-08T05:37:47.559Z,95171.19
2019-06-08T05:40:20.981Z,95175.13
2019-06-08T05:42:54.026Z,95174.09
2019-06-08T05:45:27.360Z,95176.82
2019-06-08T05:48:00.569Z,95186.05
2019-06-08T05:50:33.821Z,95182.15
2019-06-08T05:53:07.140Z,95189.47
2019-06-08T05:55:41.699Z,95192.74
2019-06-08T05:58:14.740Z,95196.39
2019-06-08T06:00:48.312Z,95199.66
2019-06-08T06:03:21.184Z,95201.28
2019-06-08T06:05:54.401Z,95196.80
2019-06-08T06:08:27.618Z,95197.25
2019-06-08T06:11:00.770Z,95195.97
2019-06-08T06:13:34.269Z,95195.92
2019-06-08T06:16:07.943Z,95189.91
2019-06-08T06:18:42.861Z,95192.70
2019-06-08T06:21:15.967Z,95193.67
2019-06-08T06:23:49.503Z,95193.70
2019-06-08T06:26:22.749Z,95195.88
2019-06-08T06:28:56.020Z,95195.45
2019-06-08T06:31:29.178Z,95199.63
2019-06-08T06:34:02.527Z,95198.48
2019-06-08T06:36:35.835Z,95199.31
2019-06-08T06:39:10.177Z,95196.58
2019-06-08T06:41:44.075Z,95195.11
2019-06-08T06:44:17.011Z,95194.51
2019-06-08T06:46:50.648Z,95188.13
2019-06-08T06:49:24.019Z,95188.73
2019-06-08T06:51:57.312Z,95186.62
2019-06-08T06:54:30.405Z,95186.05
2019-06-08T06:57:03.380Z,95185.43
2019-06-08T06:59:37.630Z,95186.91
2019-06-08T07:02:10.659Z,95186.50
2019-06-08T07:04:43.817Z,95183.28
2019-06-08T07:07:17.129Z,95184.22
2019-06-08T07:09:50.499Z,95182.17
2019-06-08T07:12:24.991Z,95181.77
2019-06-08T07:14:58.243Z,95180.51
2019-06-08T07:17:31.911Z,95181.67
2019-06-08T07:20:05.469Z,95184.70
2019-06-08T07:22:38.763Z,95185.45
2019-06-08T07:25:12.112Z,95178.99
2019-06-08T07:27:46.447Z,95178.08
2019-06-08T07:30:19.830Z,95173.18
2019-06-08T07:32:53.104Z,95171.27
2019-06-08T07:35:26.663Z,95168.00
2019-06-08T07:37:59.878Z,95165.47
2019-06-08T07:40:32.884Z,95165.73
2019-06-08T07:43:06.262Z,95162.65
2019-06-08T07:45:39.491Z,95163.11
2019-06-08T07:48:12.784Z,95160.73
2019-06-08T07:50:46.259Z,95156.67
2019-06-08T07:53:20.500Z,95158.25
2019-06-08T07:55:53.908Z,95158.52
2019-06-08T07:58:27.490Z,95163.61
2019-06-08T08:01:07.615Z,95163.11
2019-06-08T08:03:35.224Z,95160.84
2019-06-08T08:06:08.639Z,95163.14
2019-06-08T08:08:41.542Z,95158.18
2019-06-08T08:11:15.698Z,95157.11
2019-06-08T08:13:50.127Z,95154.70
2019-06-08T08:16:24.617Z,95155.72
2019-06-08T08:18:58.124Z,95149.55
2019-06-08T08:21:31.984Z,95148.38
2019-06-08T08:24:07.325Z,95148.38
2019-06-08T08:26:40.519Z,95146.98
2019-06-08T08:29:13.820Z,95142.46
2019-06-08T08:31:47.995Z,95141.86
2019-06-08T08:34:22.355Z,95135.00
2019-06-08T08:36:58.620Z,95133.84
2019-06-08T08:39:30.963Z,95130.91
2019-06-08T08:42:05.371Z,95137.92
2019-06-08T08:44:38.859Z,95130.57
2019-06-08T08:47:12.043Z,95130.86
2019-06-08T08:49:45.311Z,95129.06
2019-06-08T08:52:18.361Z,95135.20
2019-06-08T08:54:52.374Z,95130.26
2019-06-08T08:57:25.162Z,95124.83
2019-06-08T09:00:01.721Z,95127.19
2019-06-08T09:02:33.026Z,95129.13
2019-06-08T09:05:08.570Z,95128.56
2019-06-08T09:07:41.933Z,95128.13
2019-06-08T09:10:18.292Z,95126.45
2019-06-08T09:12:52.306Z,95121.35
2019-06-08T09:15:28.769Z,95116.61
2019-06-08T09:18:03.421Z,95119.23
2019-06-08T09:20:37.930Z,95119.77
2019-06-08T09:23:16.180Z,95117.27
2019-06-08T09:25:48.070Z,95117.05
2019-06-08T09:28:20.932Z,95115.97
2019-06-08T09:30:54.158Z,95120.69
2019-06-08T09:33:28.844Z,95113.27
2019-06-08T09:36:04.736Z,95120.59
2019-06-08T09:38:38.710Z,95113.00
2019-06-08T09:41:11.221Z,95118.23
2019-06-08T09:43:44.183Z,95118.31
2019-06-08T09:46:17.881Z,95121.34
2019-06-08T09:48:51.395Z,95124.63
2019-06-08T09:51:24.896Z,95122.23
2019-06-08T09:54:02.047Z,95118.81
2019-06-08T09:56:32.842Z,95117.72
2019-06-08T09:59:10.126Z,95118.34
2019-06-08T10:01:40.691Z,95112.67
2019-06-08T10:04:14.091Z,95112.02
2019-06-08T10:06:48.041Z,95111.33
2019-06-08T10:09:21.081Z,95112.95
2019-06-08T10:11:54.298Z,95104.27
2019-06-08T10:14:28.191Z,95108.38
2019-06-08T10:17:03.870Z,95094.52
2019-06-08T10:19:36.588Z,95105.87
2019-06-08T10:22:09.888Z,95102.17
2019-06-08T10:24:42.754Z,95102.11
2019-06-08T10:27:15.448Z,95105.33
2019-06-08T10:29:48.936Z,95105.14
2019-06-08T10:32:23.473Z,95103.26
2019-06-08T10:35:00.004Z,95098.39
2019-06-08T10:37:31.487Z,95098.20
2019-06-08T10:40:06.612Z,95091.55
2019-06-08T10:42:40.408Z,95087.58
2019-06-08T10:45:14.979Z,95086.39
2019-06-08T10:47:48.765Z,95087.94
2019-06-08T10:50:22.221Z,95081.23
2019-06-08T10:52:55.272Z,95080.92
2019-06-08T10:55:28.154Z,95080.50
2019-06-08T10:58:02.279Z,95082.55
2019-06-08T11:00:35.532Z,95075.44
2019-06-08T11:03:10.575Z,95076.36
2019-06-08T11:05:43.848Z,95076.52
2019-06-08T11:08:18.797Z,95071.58
2019-06-08T11:10:51.918Z,95064.67
2019-06-08T11:13:25.272Z,95059.81
2019-06-08T11:16:00.239Z,95058.41
2019-06-08T11:18:33.292Z,95065.78
2019-06-08T11:21:09.875Z,95060.02
2019-06-08T11:23:41.640Z,95059.16
2019-06-08T11:26:20.989Z,95052.99
2019-06-08T11:28:51.234Z,95055.08
2019-06-08T11:31:24.340Z,95053.63
2019-06-08T11:33:58.910Z,95050.14
2019-06-08T11:36:32.284Z,95047.39
2019-06-08T11:39:09.106Z,95045.58
2019-06-08T11:41:41.365Z,95046.77
2019-06-08T11:44:14.945Z,95048.23
2019-06-08T11:46:49.096Z,95048.73
2019-06-08T11:49:22.201Z,95046.28
2019-06-08T11:51:55.282Z,95046.53
2019-06-08T11:54:36.567Z,95039.42
2019-06-08T11:57:03.301Z,95046.80
2019-06-08T11:59:37.593Z,95044.55
2019-06-08T12:02:13.974Z,95044.44
2019-06-08T12:04:46.606Z,95039.00
2019-06-08T12:07:19.679Z,95042.38
2019-06-08T12:09:52.933Z,95039.56
2019-06-08T12:12:28.166Z,95034.17
2019-06-08T12:15:00.344Z,95033.68
2019-06-08T12:17:33.303Z,95030.22
2019-06-08T12:20:08.564Z,95025.80
2019-06-08T12:22:41.338Z,95029.84
2019-06-08T12:25:15.412Z,95026.89
2019-06-08T12:27:49.207Z,95023.05
2019-06-08T12:30:26.245Z,95027.14
2019-06-08T12:32:59.399Z,95023.08
2019-06-08T12:35:32.464Z,95024.63
2019-06-08T12:38:06.236Z,95023.05
2019-06-08T12:40:41.062Z,95023.33
2019-06-08T12:43:15.742Z,95019.28
2019-06-08T12:45:49.296Z,95026.55
2019-06-08T12:48:24.886Z,95021.18
2019-06-08T12:50:56.547Z,95016.02
2019-06-08T12:53:29.646Z,95018.34
2019-06-08T12:56:02.827Z,95018.14
2019-06-08T12:58:38.533Z,95010.73
2019-06-08T13:01:11.375Z,95013.06
2019-06-08T13:03:48.294Z,95010.74
2019-06-08T13:06:20.204Z,95004.73
2019-06-08T13:08:53.738Z,95005.48
2019-06-08T13:11:28.259Z,95014.05
2019-06-08T13:14:21.811Z,95002.84
2019-06-08T13:16:55.027Z,95014.22
2019-06-08T13:19:27.898Z,95009.52
2019-06-08T13:22:00.946Z,95014.17
2019-06-08T13:24:34.193Z,95006.59
2019-06-08T13:27:10.372Z,95005.69
2019-06-08T13:29:41.774Z,95003.09
2019-06-08T13:32:16.542Z,95002.17
2019-06-08T13:34:50.341Z,95003.95
2019-06-08T13:37:23.481Z,95006.45
2019-06-08T13:39:59.053Z,95006.83
2019-06-08T13:42:31.316Z,95003.73
2019-06-08T13:45:07.404Z,95007.64
2019-06-08T13:47:41.395Z,95006.34
2019-06-08T14:00:03.733Z,94998.31
2019-06-08T14:02:36.713Z,94997.50
2019-06-08T14:05:10.604Z,94995.88
2019-06-08T14:07:43.759Z,95001.20
2019-06-08T14:10:22.393Z,94995.42
2019-06-08T14:12:55.121Z,95002.94
2019-06-08T14:15:28.332Z,95004.77
2019-06-08T14:18:01.587Z,95004.38
2019-06-08T14:20:34.820Z,95008.58
2019-06-08T14:23:09.221Z,95010.05
2019-06-08T14:25:49.981Z,95004.64
2019-06-08T14:28:19.344Z,95001.29
2019-06-08T14:30:51.864Z,95002.61
2019-06-08T14:33:29.140Z,94999.25
2019-06-08T14:35:59.827Z,95007.01
2019-06-08T14:38:38.550Z,94997.44
2019-06-08T14:41:07.762Z,94991.02
2019-06-08T14:43:41.234Z,94989.92
2019-06-08T14:46:14.259Z,94984.51
2019-06-08T14:48:47.524Z,94982.08
2019-06-08T14:51:20.447Z,94977.66
2019-06-08T14:53:53.586Z,94984.41
2019-06-08T14:56:29.224Z,94988.38
2019-06-08T14:59:01.266Z,94985.78
2019-06-08T15:01:34.553Z,94981.98
2019-06-08T15:04:08.950Z,94984.02
2019-06-08T15:06:42.175Z,94986.29
2019-06-08T15:09:15.175Z,94984.92
2019-06-08T15:11:51.011Z,94983.06
2019-06-08T15:14:29.293Z,94982.18
2019-06-08T15:17:09.561Z,94981.69
2019-06-08T15:19:47.507Z,94978.87
2019-06-08T15:22:29.916Z,94976.49
2019-06-08T15:25:30.029Z,94973.41
2019-06-08T15:28:11.403Z,94973.58
2019-06-08T15:30:48.715Z,94978.71
2019-06-08T15:33:32.144Z,94976.00
2019-06-08T15:36:08.770Z,94979.05
2019-06-08T15:38:49.176Z,94974.61
2019-06-08T15:41:32.857Z,94969.09
2019-06-08T15:44:10.971Z,94969.91
2019-06-08T15:46:52.619Z,94966.53
2019-06-08T15:49:32.285Z,94970.16
2019-06-08T15:52:11.270Z,94967.57
2019-06-08T15:54:53.960Z,94970.67
2019-06-08T15:57:37.942Z,94966.09
2019-06-08T16:00:18.442Z,94968.96
2019-06-08T16:02:58.734Z,94966.91
2019-06-08T16:05:43.838Z,94968.45
2019-06-08T16:08:25.984Z,94971.13
2019-06-08T16:11:04.801Z,94969.67
2019-06-08T16:13:47.345Z,94970.70
2019-06-08T16:16:31.115Z,94970.56
2019-06-08T16:19:12.357Z,94968.19
2019-06-08T16:21:53.886Z,94967.59
2019-06-08T16:24:34.409Z,94971.17
2019-06-08T16:27:15.041Z,94976.66
2019-06-08T16:29:58.725Z,94970.34
2019-06-08T16:32:42.393Z,94967.62
2019-06-08T16:35:24.255Z,94968.02
2019-06-08T16:38:04.570Z,94965.94
2019-06-08T16:40:46.216Z,94968.16
2019-06-08T16:43:26.893Z,94973.38
2019-06-08T16:46:10.288Z,94970.02
2019-06-08T16:48:51.979Z,94965.40
2019-06-08T16:51:34.145Z,94976.63
2019-06-08T16:54:19.387Z,94979.41
2019-06-08T16:57:10.036Z,94978.73
2019-06-08T16:59:45.866Z,94980.13
2019-06-08T17:02:23.576Z,94989.00
2019-06-08T17:05:11.952Z,94991.16
2019-06-08T17:07:51.535Z,94994.81
2019-06-08T17:10:32.581Z,94997.33
2019-06-08T17:13:16.628Z,95000.33
2019-06-08T17:15:57.085Z,95001.33
2019-06-08T17:18:40.255Z,95002.86
2019-06-08T17:21:23.968Z,95005.12
2019-06-08T17:24:02.508Z,95006.95
2019-06-08T17:26:44.304Z,95005.84
2019-06-08T17:29:26.356Z,95002.21
2019-06-08T17:32:09.990Z,95000.17
2019-06-08T17:34:48.606Z,94998.45
2019-06-08T17:37:31.912Z,94997.76
2019-06-08T17:40:10.730Z,94995.80
2019-06-08T17:42:51.824Z,94994.88
2019-06-08T17:45:29.902Z,94998.69
2019-06-08T17:48:09.994Z,94996.31
2019-06-08T17:50:48.780Z,94991.59
2019-06-08T17:53:32.656Z,94989.73
2019-06-08T17:56:14.308Z,94987.48
2019-06-08T17:58:53.725Z,94994.01
2019-06-08T18:01:34.790Z,94991.39
2019-06-08T18:04:13.620Z,94990.79
2019-06-08T18:06:47.333Z,95000.92
2019-06-08T18:09:20.891Z,95001.94
2019-06-08T18:11:55.337Z,95003.92
2019-06-08T18:14:30.843Z,95010.12
2019-06-08T18:17:03.989Z,95010.30
2019-06-08T18:19:40.325Z,95012.86
2019-06-08T18:22:15.304Z,95007.44
2019-06-08T18:24:47.964Z,95008.58
2019-06-08T18:27:21.001Z,95012.36
2019-06-08T18:29:54.227Z,95023.95
2019-06-08T18:32:27.664Z,95023.61
2019-06-08T18:35:02.218Z,95024.30
2019-06-08T18:37:38.096Z,95043.72
2019-06-08T18:40:12.697Z,95044.83
2019-06-08T18:42:48.509Z,95056.16
2019-06-08T18:45:21.071Z,95060.58
2019-06-08T18:47:54.153Z,95067.44
2019-06-08T18:50:28.545Z,95074.02
2019-06-08T18:53:01.916Z,95091.22
2019-06-08T18:55:36.313Z,95101.61
2019-06-08T18:58:20.677Z,95107.25
2019-06-08T19:00:49.612Z,95105.86
2019-06-08T19:03:20.672Z,95116.75
2019-06-08T19:05:53.908Z,95127.00
2019-06-08T19:08:28.152Z,95132.69
2019-06-08T19:11:01.392Z,95132.02
2019-06-08T19:13:37.760Z,95136.67
2019-06-08T19:16:10.095Z,95139.24
2019-06-08T19:18:49.737Z,95142.79
2019-06-08T19:21:20.949Z,95140.22
2019-06-08T19:23:53.998Z,95140.08
2019-06-08T19:26:28.174Z,95139.52
2019-06-08T19:29:01.484Z,95138.14
2019-06-08T19:31:38.644Z,95144.47
2019-06-08T19:34:10.762Z,95142.59
2019-06-08T19:36:44.319Z,95146.06
2019-06-08T19:39:18.247Z,95147.78
2019-06-08T19:41:51.674Z,95151.97
2019-06-08T19:44:27.629Z,95149.73
2019-06-08T19:47:01.006Z,95149.12
2019-06-08T19:49:38.730Z,95149.84
2019-06-08T19:52:12.638Z,95158.42
2019-06-08T19:54:48.361Z,95168.03
2019-06-08T19:57:20.529Z,95173.21
2019-06-08T19:59:53.946Z,95161.70
2019-06-08T20:02:27.531Z,95164.06
2019-06-08T20:05:00.637Z,95165.43
2019-06-08T20:07:33.907Z,95169.78
2019-06-08T20:10:07.913Z,95166.18
2019-06-08T20:12:43.667Z,95167.91
2019-06-08T20:15:18.429Z,95171.83
2019-06-08T20:17:52.321Z,95173.19
2019-06-08T20:20:27.748Z,95173.73
2019-06-08T20:23:00.285Z,95175.95
2019-06-08T20:25:33.238Z,95178.27
2019-06-08T20:28:07.966Z,95178.78
2019-06-08T20:30:42.246Z,95170.16
2019-06-08T20:33:15.782Z,95168.84
2019-06-08T20:35:51.760Z,95169.78
2019-06-08T20:38:37.006Z,95173.94
2019-06-08T20:40:58.574Z,95171.80
2019-06-08T20:43:33.019Z,95172.79
2019-06-08T20:46:08.004Z,95167.17
2019-06-08T20:48:42.085Z,95170.41
2019-06-08T20:51:17.256Z,95162.95
2019-06-08T20:53:50.888Z,95159.66
2019-06-08T20:56:27.902Z,95165.78
2019-06-08T20:59:00.790Z,95170.77
2019-06-08T21:01:34.222Z,95177.27
2019-06-08T21:04:07.631Z,95180.25
2019-06-08T21:06:41.337Z,95179.39
2019-06-08T21:09:15.397Z,95182.03
2019-06-08T21:11:49.820Z,95182.81
2019-06-08T21:14:23.194Z,95181.54
2019-06-08T21:16:58.462Z,95187.46
2019-06-08T21:19:30.793Z,95185.77
2019-06-08T21:22:03.931Z,95182.47
2019-06-08T21:24:37.159Z,95179.29
2019-06-08T21:27:10.444Z,95177.67
2019-06-08T21:29:49.228Z,95176.39
2019-06-08T21:32:21.519Z,95169.17
2019-06-08T21:34:53.770Z,95167.13
2019-06-08T21:37:28.046Z,95168.19
2019-06-08T21:40:03.924Z,95172.52
2019-06-08T21:42:37.064Z,95177.37
2019-06-08T21:45:11.875Z,95174.34
2019-06-08T21:47:47.182Z,95171.95
2019-06-08T21:50:19.600Z,95165.31
2019-06-08T21:52:53.589Z,95165.75
2019-06-08T21:55:27.638Z,95161.38
2019-06-08T21:58:02.073Z,95166.88
2019-06-08T22:00:40.347Z,95165.45
2019-06-08T22:03:10.372Z,95161.14
2019-06-08T22:05:43.051Z,95157.38
2019-06-08T22:08:17.360Z,95153.76
2019-06-08T22:10:51.555Z,95150.01
2019-06-08T22:13:28.080Z,95153.86
2019-06-08T22:16:02.142Z,95151.97
2019-06-08T22:18:34.482Z,95156.80
2019-06-08T22:21:08.329Z,95145.41
2019-06-08T22:23:41.412Z,95139.70
2019-06-08T22:26:14.841Z,95141.69
2019-06-08T22:28:49.227Z,95140.56
2019-06-08T22:31:23.190Z,95150.20
2019-06-08T22:33:59.068Z,95149.88
2019-06-08T22:36:31.278Z,95150.37
2019-06-08T22:39:05.141Z,95149.85
2019-06-08T22:41:38.900Z,95148.95
2019-06-08T22:44:12.265Z,95147.53
2019-06-08T22:46:45.106Z,95150.43
2019-06-08T22:49:18.842Z,95150.77
2019-06-08T22:51:53.403Z,95156.17
2019-06-08T22:54:27.653Z,95154.88
2019-06-08T22:57:02.981Z,95152.91
2019-06-08T22:59:37.213Z,95152.80
2019-06-08T23:02:12.482Z,95156.53
2019-06-08T23:04:47.406Z,95160.42
2019-06-08T23:07:28.555Z,95170.54
2019-06-08T23:09:59.334Z,95172.30
2019-06-08T23:12:30.114Z,95172.65
2019-06-08T23:15:03.847Z,95176.04
2019-06-08T23:17:38.589Z,95176.70
2019-06-08T23:20:12.313Z,95176.90
2019-06-08T23:22:47.384Z,95175.79
2019-06-08T23:25:20.827Z,95170.64
2019-06-08T23:27:53.768Z,95168.56
2019-06-08T23:30:27.721Z,95169.72
2019-06-08T23:33:02.695Z,95169.88
2019-06-08T23:35:56.684Z,95171.63
2019-06-08T23:38:10.079Z,95165.03
2019-06-08T23:40:44.395Z,95162.52
2019-06-08T23:43:18.169Z,95165.12
2019-06-08T23:45:51.365Z,95163.90
2019-06-08T23:48:24.266Z,95157.04
2019-06-08T23:50:57.897Z,95149.40
2019-06-08T23:53:31.494Z,95152.99
2019-06-08T23:56:05.316Z,95155.83
2019-06-08T23:58:38.913Z,95159.84
